createdAt,value
2018-07-30T00:01:26.385Z,24.19
2018-07-30T00:02:26.383Z,24.13
2018-07-30T00:04:19.319Z,24.12
2018-07-30T00:05:19.345Z,24.08
2018-07-30T00:07:12.286Z,24.12
2018-07-30T00:08:12.286Z,24.08
2018-07-30T00:10:05.221Z,24.07
2018-07-30T00:11:05.237Z,24.08
2018-07-30T00:12:58.191Z,24.01
2018-07-30T00:13:58.195Z,24.01
2018-07-30T00:15:51.150Z,24.00
2018-07-30T00:16:51.143Z,24.01
2018-07-30T00:18:44.081Z,24.01
2018-07-30T00:19:44.097Z,24.00
2018-07-30T00:21:37.054Z,23.95
2018-07-30T00:22:37.052Z,24.00
2018-07-30T00:24:29.988Z,24.05
2018-07-30T00:25:30.001Z,24.00
2018-07-30T00:27:22.954Z,23.90
2018-07-30T00:28:22.951Z,23.94
2018-07-30T00:30:15.890Z,23.92
2018-07-30T00:31:15.942Z,23.82
2018-07-30T00:33:08.862Z,23.77
2018-07-30T00:34:08.854Z,23.82
2018-07-30T00:36:01.810Z,23.71
2018-07-30T00:37:01.811Z,23.79
2018-07-30T00:38:54.745Z,23.77
2018-07-30T00:39:54.759Z,23.75
2018-07-30T00:41:47.713Z,23.71
2018-07-30T00:42:47.709Z,23.65
2018-07-30T00:44:40.641Z,23.52
2018-07-30T00:45:40.662Z,23.61
2018-07-30T00:47:33.619Z,23.46
2018-07-30T00:48:33.615Z,23.35
2018-07-30T00:50:26.554Z,23.42
2018-07-30T00:51:26.573Z,23.27
2018-07-30T00:53:19.524Z,23.29
2018-07-30T00:54:19.523Z,23.22
2018-07-30T00:56:12.476Z,23.19
2018-07-30T00:57:12.476Z,23.17
2018-07-30T00:59:05.900Z,23.23
2018-07-30T01:00:05.924Z,23.20
2018-07-30T01:01:58.877Z,23.27
2018-07-30T01:02:58.874Z,23.22
2018-07-30T01:04:51.805Z,23.24
2018-07-30T01:05:51.823Z,23.20
2018-07-30T01:07:44.818Z,23.15
2018-07-30T01:08:44.775Z,23.22
2018-07-30T01:10:37.710Z,23.27
2018-07-30T01:11:37.727Z,23.29
2018-07-30T01:13:30.690Z,23.27
2018-07-30T01:14:30.710Z,23.29
2018-07-30T01:16:23.641Z,23.39
2018-07-30T01:17:23.638Z,23.31
2018-07-30T01:19:16.568Z,23.29
2018-07-30T01:20:16.585Z,23.35
2018-07-30T01:22:09.541Z,23.42
2018-07-30T01:23:09.539Z,23.45
2018-07-30T01:25:02.472Z,23.43
2018-07-30T01:26:02.485Z,23.34
2018-07-30T01:27:55.438Z,23.50
2018-07-30T01:28:55.436Z,23.42
2018-07-30T01:30:48.372Z,23.46
2018-07-30T01:31:48.390Z,23.46
2018-07-30T01:33:41.342Z,23.60
2018-07-30T01:34:41.344Z,23.53
2018-07-30T01:36:34.291Z,23.53
2018-07-30T01:37:34.291Z,23.55
2018-07-30T01:39:27.225Z,23.50
2018-07-30T01:40:27.244Z,23.43
2018-07-30T01:42:20.195Z,23.42
2018-07-30T01:43:20.190Z,23.31
2018-07-30T01:45:13.126Z,23.26
2018-07-30T01:46:13.143Z,23.19
2018-07-30T01:48:06.098Z,23.26
2018-07-30T01:49:06.097Z,23.23
2018-07-30T01:50:59.026Z,23.12
2018-07-30T01:51:59.043Z,23.12
2018-07-30T01:53:52.001Z,23.19
2018-07-30T02:24:19.249Z,23.23
2018-07-30T02:25:19.237Z,23.14
2018-07-30T02:27:12.177Z,23.19
2018-07-30T02:28:12.172Z,23.08
2018-07-30T02:30:05.099Z,23.05
2018-07-30T02:31:05.113Z,23.01
2018-07-30T02:32:58.064Z,23.05
2018-07-30T02:33:58.059Z,22.99
2018-07-30T02:35:50.993Z,22.96
2018-07-30T02:36:51.023Z,22.92
2018-07-30T02:38:43.954Z,22.93
2018-07-30T02:39:43.949Z,22.99
2018-07-30T02:41:36.881Z,22.84
2018-07-30T02:42:36.893Z,23.01
2018-07-30T02:44:29.853Z,22.96
2018-07-30T02:45:29.853Z,22.90
2018-07-30T02:47:22.796Z,22.97
2018-07-30T02:48:22.794Z,22.87
2018-07-30T02:50:15.722Z,22.86
2018-07-30T02:51:15.738Z,22.86
2018-07-30T02:53:08.691Z,22.75
2018-07-30T02:54:08.685Z,22.74
2018-07-30T02:56:01.620Z,22.75
2018-07-30T02:57:01.639Z,22.89
2018-07-30T02:58:54.593Z,22.89
2018-07-30T02:59:54.589Z,22.87
2018-07-30T03:01:47.516Z,22.93
2018-07-30T03:02:47.532Z,22.99
2018-07-30T03:04:40.485Z,22.96
2018-07-30T03:05:40.486Z,22.99
2018-07-30T03:07:33.436Z,22.99
2018-07-30T03:08:33.436Z,23.02
2018-07-30T03:10:26.363Z,22.89
2018-07-30T03:11:26.381Z,22.83
2018-07-30T03:13:19.335Z,22.80
2018-07-30T03:14:19.330Z,22.90
2018-07-30T03:16:12.259Z,22.87
2018-07-30T03:17:12.276Z,22.92
2018-07-30T03:19:05.230Z,22.92
2018-07-30T03:20:05.230Z,22.90
2018-07-30T03:21:58.165Z,22.86
2018-07-30T03:22:58.184Z,22.84
2018-07-30T03:24:51.132Z,22.83
2018-07-30T03:25:51.132Z,22.80
2018-07-30T03:27:44.081Z,22.86
2018-07-30T03:28:44.113Z,22.83
2018-07-30T03:30:37.012Z,22.75
2018-07-30T03:31:37.025Z,22.77
2018-07-30T03:33:29.984Z,22.72
2018-07-30T03:34:29.977Z,22.74
2018-07-30T03:36:22.909Z,22.78
2018-07-30T03:37:22.927Z,22.77
2018-07-30T03:39:15.881Z,22.72
2018-07-30T03:40:15.880Z,22.75
2018-07-30T03:42:08.840Z,22.75
2018-07-30T03:43:08.825Z,22.80
2018-07-30T03:45:01.836Z,22.83
2018-07-30T03:46:01.773Z,22.72
2018-07-30T03:47:54.770Z,22.75
2018-07-30T03:48:54.723Z,22.83
2018-07-30T03:50:47.673Z,22.71
2018-07-30T03:51:47.685Z,22.77
2018-07-30T03:53:40.635Z,22.82
2018-07-30T03:54:40.640Z,22.86
2018-07-30T03:56:33.564Z,22.90
2018-07-30T03:57:33.578Z,23.01
2018-07-30T03:59:26.536Z,22.99
2018-07-30T04:00:26.591Z,22.93
2018-07-30T04:02:19.462Z,23.07
2018-07-30T04:03:19.479Z,23.01
2018-07-30T04:05:12.428Z,22.94
2018-07-30T04:06:12.499Z,22.96
2018-07-30T04:08:05.384Z,22.99
2018-07-30T04:09:05.378Z,23.02
2018-07-30T04:10:58.325Z,22.94
2018-07-30T04:11:58.339Z,22.96
2018-07-30T04:13:51.294Z,22.96
2018-07-30T04:14:51.289Z,22.90
2018-07-30T04:16:44.222Z,22.86
2018-07-30T04:17:44.238Z,22.99
2018-07-30T04:19:37.190Z,22.86
2018-07-30T04:20:37.191Z,22.96
2018-07-30T04:22:30.119Z,22.82
2018-07-30T04:23:30.137Z,22.86
2018-07-30T04:25:23.093Z,22.92
2018-07-30T04:26:23.084Z,22.92
2018-07-30T04:28:16.040Z,22.80
2018-07-30T04:29:16.038Z,22.97
2018-07-30T04:31:08.971Z,22.92
2018-07-30T04:32:08.989Z,23.02
2018-07-30T04:34:01.943Z,22.97
2018-07-30T04:35:01.940Z,22.97
2018-07-30T04:36:54.904Z,22.99
2018-07-30T04:37:54.919Z,23.01
2018-07-30T04:39:47.874Z,23.05
2018-07-30T04:40:47.872Z,23.15
2018-07-30T04:42:40.807Z,23.19
2018-07-30T04:43:40.878Z,23.31
2018-07-30T04:45:33.784Z,23.43
2018-07-30T04:46:33.781Z,23.38
2018-07-30T04:48:26.739Z,23.32
2018-07-30T04:49:26.731Z,23.27
2018-07-30T04:51:19.659Z,23.29
2018-07-30T04:52:19.676Z,23.22
2018-07-30T04:54:12.629Z,23.19
2018-07-30T04:55:12.634Z,23.08
2018-07-30T04:57:05.636Z,23.04
2018-07-30T04:58:05.575Z,23.02
2018-07-30T04:59:58.531Z,23.07
2018-07-30T05:00:58.524Z,23.07
2018-07-30T05:02:51.465Z,23.11
2018-07-30T05:03:51.486Z,22.97
2018-07-30T05:05:44.433Z,23.01
2018-07-30T05:06:44.436Z,23.05
2018-07-30T05:08:37.389Z,23.04
2018-07-30T05:09:37.506Z,23.17
2018-07-30T05:11:30.317Z,23.34
2018-07-30T05:12:30.333Z,23.43
2018-07-30T05:14:23.291Z,23.65
2018-07-30T05:15:23.284Z,23.79
2018-07-30T05:17:16.220Z,23.95
2018-07-30T05:18:16.236Z,24.07
2018-07-30T05:20:09.192Z,24.34
2018-07-30T05:21:09.191Z,24.53
2018-07-30T05:23:02.127Z,24.79
2018-07-30T05:24:02.143Z,24.83
2018-07-30T05:25:55.100Z,24.95
2018-07-30T05:26:55.094Z,25.02
2018-07-30T05:28:48.047Z,25.12
2018-07-30T05:29:48.050Z,25.19
2018-07-30T05:31:41.026Z,25.17
2018-07-30T05:32:40.999Z,25.19
2018-07-30T05:34:33.952Z,25.19
2018-07-30T05:35:33.955Z,25.12
2018-07-30T05:37:26.886Z,25.10
2018-07-30T05:38:26.903Z,25.27
2018-07-30T05:40:19.858Z,25.19
2018-07-30T05:41:19.858Z,25.25
2018-07-30T05:43:12.797Z,25.16
2018-07-30T05:44:12.815Z,25.25
2018-07-30T05:46:05.764Z,25.20
2018-07-30T05:47:05.767Z,25.24
2018-07-30T05:48:59.217Z,25.32
2018-07-30T05:49:59.242Z,25.30
2018-07-30T05:51:52.173Z,25.31
2018-07-30T05:52:52.183Z,25.47
2018-07-30T05:54:45.134Z,25.50
2018-07-30T05:55:45.131Z,25.52
2018-07-30T05:57:38.065Z,25.54
2018-07-30T05:58:38.089Z,25.54
2018-07-30T06:00:31.037Z,25.71
2018-07-30T06:01:31.035Z,25.82
2018-07-30T06:03:23.970Z,25.90
2018-07-30T06:04:23.989Z,26.01
2018-07-30T06:06:16.952Z,26.05
2018-07-30T06:07:16.950Z,26.01
2018-07-30T06:09:09.917Z,26.02
2018-07-30T06:10:09.902Z,26.09
2018-07-30T06:12:02.837Z,26.15
2018-07-30T06:13:02.860Z,26.28
2018-07-30T06:14:55.812Z,26.32
2018-07-30T06:15:55.813Z,26.40
2018-07-30T06:17:48.745Z,26.39
2018-07-30T06:18:48.764Z,26.50
2018-07-30T06:20:41.718Z,26.95
2018-07-30T06:21:41.715Z,26.87
2018-07-30T06:23:34.658Z,26.95
2018-07-30T06:24:34.674Z,26.98
2018-07-30T06:26:27.697Z,27.06
2018-07-30T06:27:27.701Z,27.21
2018-07-30T06:29:20.582Z,27.24
2018-07-30T06:30:20.584Z,27.35
2018-07-30T06:32:13.537Z,27.42
2018-07-30T06:33:13.538Z,27.54
2018-07-30T06:35:06.529Z,27.73
2018-07-30T06:36:06.527Z,27.74
2018-07-30T06:37:59.466Z,28.28
2018-07-30T06:38:59.487Z,28.31
2018-07-30T06:40:52.446Z,28.47
2018-07-30T06:41:52.445Z,28.62
2018-07-30T06:43:45.381Z,29.10
2018-07-30T06:44:45.404Z,28.95
2018-07-30T06:46:38.355Z,28.78
2018-07-30T06:47:38.362Z,28.77
2018-07-30T06:49:31.314Z,28.80
2018-07-30T06:50:31.316Z,28.75
2018-07-30T06:52:24.275Z,29.68
2018-07-30T06:53:24.488Z,29.56
2018-07-30T06:55:17.235Z,29.77
2018-07-30T06:56:17.235Z,30.07
2018-07-30T06:58:10.186Z,30.16
2018-07-30T06:59:10.196Z,30.37
2018-07-30T07:01:03.161Z,30.26
2018-07-30T07:02:03.207Z,30.12
2018-07-30T07:03:56.104Z,29.86
2018-07-30T07:04:56.123Z,29.52
2018-07-30T07:06:49.087Z,29.11
2018-07-30T07:07:49.091Z,28.90
2018-07-30T07:09:42.038Z,28.96
2018-07-30T07:10:42.057Z,29.72
2018-07-30T07:12:35.027Z,31.08
2018-07-30T07:13:35.027Z,32.03
2018-07-30T07:15:27.986Z,32.43
2018-07-30T07:16:28.030Z,32.85
2018-07-30T07:18:20.930Z,33.15
2018-07-30T07:19:21.039Z,33.36
2018-07-30T07:21:13.939Z,33.78
2018-07-30T07:22:13.924Z,34.13
2018-07-30T07:24:06.866Z,34.24
2018-07-30T07:25:06.891Z,34.32
2018-07-30T07:26:59.921Z,33.71
2018-07-30T07:27:59.898Z,33.51
2018-07-30T07:29:52.834Z,33.22
2018-07-30T07:30:52.824Z,33.08
2018-07-30T07:32:45.769Z,32.03
2018-07-30T07:33:45.794Z,32.06
2018-07-30T07:35:38.764Z,33.08
2018-07-30T07:36:38.761Z,33.55
2018-07-30T07:38:31.723Z,33.73
2018-07-30T07:39:31.742Z,34.02
2018-07-30T07:41:24.710Z,34.70
2018-07-30T07:42:24.718Z,34.66
2018-07-30T07:44:17.657Z,34.94
2018-07-30T07:45:17.683Z,34.57
2018-07-30T07:47:10.646Z,34.13
2018-07-30T07:48:10.651Z,33.95
2018-07-30T07:50:03.657Z,33.79
2018-07-30T07:51:03.839Z,33.85
2018-07-30T07:52:56.604Z,33.43
2018-07-30T07:53:56.603Z,33.42
2018-07-30T07:55:49.577Z,33.92
2018-07-30T07:56:49.581Z,33.87
2018-07-30T07:58:42.542Z,34.09
2018-07-30T07:59:42.564Z,34.13
2018-07-30T08:01:35.529Z,33.74
2018-07-30T08:02:35.538Z,33.53
2018-07-30T08:04:28.484Z,33.51
2018-07-30T08:05:28.513Z,33.52
2018-07-30T08:07:21.483Z,33.55
2018-07-30T08:08:21.491Z,33.61
2018-07-30T08:10:14.434Z,33.63
2018-07-30T08:11:14.461Z,33.73
2018-07-30T08:13:07.430Z,33.57
2018-07-30T08:14:07.435Z,33.42
2018-07-30T08:16:00.406Z,33.57
2018-07-30T08:17:00.410Z,33.46
2018-07-30T08:18:53.356Z,33.31
2018-07-30T08:19:53.382Z,33.17
2018-07-30T08:21:46.348Z,32.79
2018-07-30T08:22:46.354Z,32.61
2018-07-30T08:24:39.297Z,32.42
2018-07-30T08:25:39.325Z,32.33
2018-07-30T08:27:32.289Z,32.24
2018-07-30T08:28:32.290Z,32.20
2018-07-30T08:30:25.266Z,32.00
2018-07-30T08:31:25.268Z,32.05
2018-07-30T08:33:18.216Z,31.98
2018-07-30T08:34:18.233Z,31.87
2018-07-30T08:36:11.215Z,31.85
2018-07-30T08:37:11.220Z,31.85
2018-07-30T08:39:04.162Z,31.91
2018-07-30T08:40:04.187Z,31.87
2018-07-30T08:41:57.154Z,31.96
2018-07-30T08:42:57.154Z,32.03
2018-07-30T08:44:50.102Z,31.95
2018-07-30T08:45:50.123Z,31.96
2018-07-30T08:47:43.087Z,32.03
2018-07-30T08:48:43.104Z,32.07
2018-07-30T08:50:36.036Z,32.07
2018-07-30T08:51:36.057Z,32.18
2018-07-30T08:53:29.027Z,32.33
2018-07-30T08:54:29.027Z,32.24
2018-07-30T08:56:21.991Z,32.02
2018-07-30T08:57:21.990Z,31.99
2018-07-30T08:59:14.936Z,32.13
2018-07-30T09:00:14.960Z,32.20
2018-07-30T09:02:07.920Z,32.00
2018-07-30T09:03:07.923Z,32.10
2018-07-30T09:05:00.869Z,32.13
2018-07-30T09:06:00.888Z,32.20
2018-07-30T09:07:53.860Z,32.11
2018-07-30T09:08:53.861Z,31.98
2018-07-30T09:10:46.805Z,31.98
2018-07-30T09:11:46.825Z,32.02
2018-07-30T09:13:39.792Z,32.13
2018-07-30T09:14:39.797Z,31.98
2018-07-30T09:16:32.757Z,32.03
2018-07-30T09:17:32.759Z,32.20
2018-07-30T09:19:25.703Z,32.21
2018-07-30T09:20:25.728Z,32.17
2018-07-30T09:22:18.687Z,32.18
2018-07-30T09:23:18.692Z,32.20
2018-07-30T09:25:11.632Z,32.20
2018-07-30T09:26:11.652Z,32.29
2018-07-30T09:28:04.617Z,32.52
2018-07-30T09:29:04.617Z,32.42
2018-07-30T09:30:57.564Z,32.29
2018-07-30T09:31:57.585Z,32.35
2018-07-30T09:33:50.548Z,32.30
2018-07-30T09:34:50.550Z,32.40
2018-07-30T09:36:43.519Z,32.52
2018-07-30T09:37:43.519Z,32.57
2018-07-30T09:39:36.477Z,32.66
2018-07-30T09:40:36.483Z,32.74
2018-07-30T09:42:29.452Z,32.81
2018-07-30T09:43:29.454Z,32.88
2018-07-30T09:45:22.405Z,32.80
2018-07-30T09:46:22.420Z,32.79
2018-07-30T09:48:15.389Z,32.76
2018-07-30T09:49:15.388Z,32.89
2018-07-30T09:51:08.328Z,32.64
2018-07-30T09:52:08.347Z,32.54
2018-07-30T09:54:01.309Z,32.57
2018-07-30T09:55:01.315Z,32.70
2018-07-30T09:56:54.284Z,32.32
2018-07-30T09:57:54.282Z,32.30
2018-07-30T09:59:47.219Z,32.29
2018-07-30T10:00:47.247Z,32.35
2018-07-30T10:02:40.206Z,32.35
2018-07-30T10:03:40.207Z,32.51
2018-07-30T10:05:33.156Z,32.58
2018-07-30T10:06:33.176Z,32.70
2018-07-30T10:08:26.134Z,32.81
2018-07-30T10:09:26.133Z,32.84
2018-07-30T10:11:19.081Z,32.92
2018-07-30T10:12:19.110Z,32.96
2018-07-30T10:14:12.065Z,33.08
2018-07-30T10:15:12.067Z,33.11
2018-07-30T10:17:05.051Z,33.01
2018-07-30T10:18:05.128Z,33.17
2018-07-30T10:19:57.974Z,33.27
2018-07-30T10:20:58.007Z,33.36
2018-07-30T10:22:50.962Z,33.45
2018-07-30T10:23:50.995Z,33.33
2018-07-30T10:25:43.914Z,33.51
2018-07-30T10:26:43.934Z,33.53
2018-07-30T10:28:36.898Z,33.58
2018-07-30T10:29:36.898Z,33.55
2018-07-30T10:31:29.844Z,33.63
2018-07-30T10:32:29.866Z,33.64
2018-07-30T10:34:22.863Z,33.64
2018-07-30T10:35:22.831Z,33.64
2018-07-30T10:37:15.788Z,33.61
2018-07-30T10:38:15.926Z,33.58
2018-07-30T10:40:08.738Z,33.53
2018-07-30T10:41:08.760Z,33.57
2018-07-30T10:43:01.727Z,33.55
2018-07-30T10:44:01.724Z,33.48
2018-07-30T10:45:54.670Z,33.55
2018-07-30T10:46:54.696Z,33.45
2018-07-30T10:48:47.662Z,33.60
2018-07-30T10:49:47.661Z,33.65
2018-07-30T10:51:40.669Z,33.39
2018-07-30T10:52:40.628Z,33.31
2018-07-30T10:54:33.588Z,33.45
2018-07-30T10:55:33.590Z,33.51
2018-07-30T10:57:26.556Z,33.53
2018-07-30T10:58:26.557Z,33.46
2018-07-30T11:00:19.518Z,33.63
2018-07-30T11:01:19.544Z,33.82
2018-07-30T11:03:12.504Z,33.90
2018-07-30T11:04:12.507Z,33.87
2018-07-30T11:06:05.451Z,34.00
2018-07-30T11:07:05.477Z,34.01
2018-07-30T11:08:58.435Z,34.09
2018-07-30T11:09:58.438Z,33.83
2018-07-30T11:11:51.401Z,34.09
2018-07-30T11:12:51.407Z,34.08
2018-07-30T11:14:44.399Z,34.39
2018-07-30T11:15:44.378Z,34.32
2018-07-30T11:17:37.340Z,34.54
2018-07-30T11:18:37.340Z,34.50
2018-07-30T11:20:30.304Z,34.41
2018-07-30T11:21:30.348Z,34.46
2018-07-30T11:23:23.295Z,34.39
2018-07-30T11:24:23.294Z,34.41
2018-07-30T11:26:16.243Z,34.53
2018-07-30T11:27:16.266Z,34.54
2018-07-30T11:29:09.226Z,34.58
2018-07-30T11:30:09.234Z,34.54
2018-07-30T11:32:02.182Z,34.54
2018-07-30T11:33:02.203Z,34.51
2018-07-30T11:34:55.169Z,34.56
2018-07-30T11:35:55.171Z,34.66
2018-07-30T11:37:48.192Z,34.86
2018-07-30T11:38:48.254Z,34.89
2018-07-30T11:40:41.134Z,35.14
2018-07-30T11:41:41.157Z,35.20
2018-07-30T11:43:34.181Z,35.03
2018-07-30T11:44:34.125Z,34.69
2018-07-30T11:46:27.071Z,34.57
2018-07-30T11:47:27.117Z,34.54
2018-07-30T11:49:20.054Z,34.50
2018-07-30T11:50:20.057Z,34.42
2018-07-30T11:52:13.006Z,34.50
2018-07-30T11:53:13.032Z,34.45
2018-07-30T11:55:05.999Z,34.14
2018-07-30T11:56:06.004Z,34.13
2018-07-30T11:57:58.972Z,34.04
2018-07-30T11:58:58.975Z,34.04
2018-07-30T12:00:51.918Z,33.95
2018-07-30T12:01:51.978Z,33.95
2018-07-30T12:03:44.910Z,34.04
2018-07-30T12:04:44.912Z,34.16
2018-07-30T12:06:37.858Z,34.13
2018-07-30T12:07:37.880Z,34.16
2018-07-30T12:09:30.850Z,34.24
2018-07-30T12:10:30.851Z,34.39
2018-07-30T12:12:23.815Z,34.73
2018-07-30T12:13:23.828Z,34.79
2018-07-30T12:15:16.793Z,34.66
2018-07-30T12:16:16.787Z,34.54
2018-07-30T12:18:09.821Z,34.53
2018-07-30T12:19:09.815Z,34.54
2018-07-30T12:21:02.854Z,34.22
2018-07-30T12:22:02.874Z,34.14
2018-07-30T12:23:55.931Z,34.20
2018-07-30T12:24:55.968Z,34.44
2018-07-30T12:26:48.975Z,34.66
2018-07-30T12:27:48.995Z,34.94
2018-07-30T12:29:42.046Z,35.37
2018-07-30T12:30:42.148Z,35.48
2018-07-30T12:32:34.990Z,35.66
2018-07-30T12:33:35.016Z,35.63
2018-07-30T12:35:27.981Z,35.67
2018-07-30T12:36:27.993Z,35.69
2018-07-30T12:38:20.947Z,35.76
2018-07-30T12:39:20.951Z,35.85
2018-07-30T12:41:13.893Z,35.73
2018-07-30T12:42:13.917Z,35.88
2018-07-30T12:44:06.893Z,35.85
2018-07-30T12:45:06.896Z,35.72
2018-07-30T12:46:59.850Z,35.95
2018-07-30T12:47:59.875Z,35.97
2018-07-30T12:49:52.841Z,36.04
2018-07-30T12:50:52.913Z,36.27
2018-07-30T12:52:45.789Z,36.14
2018-07-30T12:53:45.816Z,36.24
2018-07-30T12:55:38.784Z,36.43
2018-07-30T12:56:38.792Z,36.30
2018-07-30T12:58:31.756Z,36.26
2018-07-30T12:59:31.763Z,36.08
2018-07-30T13:01:24.706Z,35.86
2018-07-30T13:02:24.730Z,35.54
2018-07-30T13:04:17.694Z,35.14
2018-07-30T13:05:17.698Z,34.95
2018-07-30T13:07:10.645Z,34.83
2018-07-30T13:08:10.691Z,34.88
2018-07-30T13:10:03.636Z,34.88
2018-07-30T13:11:03.646Z,34.80
2018-07-30T13:12:56.583Z,34.81
2018-07-30T13:13:56.610Z,34.94
2018-07-30T13:15:49.573Z,34.83
2018-07-30T13:16:49.581Z,34.64
2018-07-30T13:18:42.550Z,34.58
2018-07-30T13:19:42.555Z,34.64
2018-07-30T13:21:35.496Z,34.72
2018-07-30T13:22:35.520Z,34.86
2018-07-30T13:24:28.503Z,34.64
2018-07-30T13:25:28.495Z,34.64
2018-07-30T13:27:21.437Z,34.72
2018-07-30T13:28:21.460Z,34.80
2018-07-30T13:30:14.425Z,34.81
2018-07-30T13:31:14.428Z,34.92
2018-07-30T13:33:07.374Z,34.79
2018-07-30T13:34:07.392Z,34.89
2018-07-30T13:36:00.367Z,34.86
2018-07-30T13:37:00.364Z,34.89
2018-07-30T13:38:53.341Z,35.10
2018-07-30T13:39:53.334Z,35.03
2018-07-30T13:41:46.292Z,35.08
2018-07-30T13:42:46.316Z,35.10
2018-07-30T13:44:39.350Z,35.23
2018-07-30T13:45:39.285Z,35.32
2018-07-30T13:47:32.227Z,35.37
2018-07-30T13:48:32.253Z,35.50
2018-07-30T13:50:25.216Z,35.67
2018-07-30T13:51:25.223Z,35.89
2018-07-30T13:53:18.168Z,36.20
2018-07-30T13:54:18.227Z,36.08
2018-07-30T13:56:11.163Z,36.20
2018-07-30T13:57:11.162Z,36.26
2018-07-30T13:59:04.126Z,35.99
2018-07-30T14:00:04.129Z,36.00
2018-07-30T14:01:57.080Z,35.81
2018-07-30T14:02:57.107Z,35.57
2018-07-30T14:04:50.073Z,35.62
2018-07-30T14:05:50.077Z,35.63
2018-07-30T14:07:43.018Z,35.74
2018-07-30T14:08:43.045Z,35.93
2018-07-30T14:10:36.016Z,35.81
2018-07-30T14:11:36.023Z,35.92
2018-07-30T14:13:28.967Z,35.97
2018-07-30T14:14:28.987Z,35.74
2018-07-30T14:16:21.978Z,35.63
2018-07-30T14:17:22.000Z,35.60
2018-07-30T14:19:14.948Z,35.73
2018-07-30T14:20:15.009Z,35.82
2018-07-30T14:22:07.901Z,35.84
2018-07-30T14:23:07.925Z,36.01
2018-07-30T14:25:00.895Z,36.11
2018-07-30T14:26:00.898Z,36.11
2018-07-30T14:27:53.843Z,36.07
2018-07-30T14:28:53.868Z,35.95
2018-07-30T14:30:46.852Z,35.97
2018-07-30T14:31:46.851Z,36.00
2018-07-30T14:33:39.787Z,36.11
2018-07-30T14:34:39.807Z,35.93
2018-07-30T14:36:32.846Z,35.58
2018-07-30T14:37:32.778Z,35.47
2018-07-30T14:39:25.743Z,35.47
2018-07-30T14:40:25.750Z,35.03
2018-07-30T14:42:18.698Z,35.13
2018-07-30T14:43:18.723Z,35.15
2018-07-30T14:45:11.692Z,35.37
2018-07-30T14:46:11.696Z,35.37
2018-07-30T14:48:04.640Z,35.63
2018-07-30T14:49:04.666Z,35.70
2018-07-30T14:50:57.635Z,35.85
2018-07-30T14:51:57.634Z,35.86
2018-07-30T14:53:50.588Z,35.93
2018-07-30T14:54:50.609Z,35.88
2018-07-30T14:56:43.573Z,35.93
2018-07-30T14:57:43.580Z,36.00
2018-07-30T14:59:36.593Z,35.70
2018-07-30T15:00:36.553Z,35.64
2018-07-30T15:02:29.534Z,35.25
2018-07-30T15:03:29.525Z,35.13
2018-07-30T15:05:22.494Z,35.18
2018-07-30T15:06:22.505Z,35.28
2018-07-30T15:08:15.443Z,35.18
2018-07-30T15:09:15.466Z,35.30
2018-07-30T15:11:08.430Z,35.33
2018-07-30T15:12:08.469Z,35.40
2018-07-30T15:14:01.380Z,35.51
2018-07-30T15:15:01.403Z,35.47
2018-07-30T15:16:54.368Z,35.45
2018-07-30T15:17:54.374Z,35.39
2018-07-30T15:19:47.335Z,35.45
2018-07-30T15:20:47.339Z,35.42
2018-07-30T15:22:40.283Z,35.32
2018-07-30T15:23:40.309Z,35.45
2018-07-30T15:25:33.276Z,35.39
2018-07-30T15:26:33.280Z,35.32
2018-07-30T15:28:26.230Z,35.30
2018-07-30T15:29:26.251Z,35.44
2018-07-30T15:31:19.223Z,35.28
2018-07-30T15:32:19.226Z,35.40
2018-07-30T15:34:12.182Z,35.40
2018-07-30T15:35:12.205Z,35.29
2018-07-30T15:37:05.166Z,35.20
2018-07-30T15:38:05.172Z,35.21
2018-07-30T15:39:58.136Z,35.07
2018-07-30T15:40:58.134Z,35.07
2018-07-30T15:42:51.083Z,35.01
2018-07-30T15:43:51.107Z,34.96
2018-07-30T15:45:44.072Z,34.88
2018-07-30T15:46:44.112Z,34.76
2018-07-30T15:48:37.025Z,34.60
2018-07-30T15:49:37.046Z,34.58
2018-07-30T15:51:30.014Z,34.53
2018-07-30T15:52:30.018Z,34.56
2018-07-30T15:54:22.959Z,34.56
2018-07-30T15:55:22.985Z,34.44
2018-07-30T15:57:15.952Z,34.46
2018-07-30T15:58:15.954Z,34.48
2018-07-30T16:00:08.918Z,34.46
2018-07-30T16:01:08.925Z,34.38
2018-07-30T16:03:01.884Z,34.48
2018-07-30T16:04:01.903Z,34.44
2018-07-30T16:05:54.891Z,34.44
2018-07-30T16:06:54.869Z,34.50
2018-07-30T16:08:47.815Z,34.34
2018-07-30T16:09:47.841Z,34.26
2018-07-30T16:11:40.806Z,34.22
2018-07-30T16:12:40.813Z,34.20
2018-07-30T16:14:33.757Z,34.19
2018-07-30T16:15:33.782Z,34.17
2018-07-30T16:17:26.743Z,34.09
2018-07-30T16:18:26.748Z,34.04
2018-07-30T16:20:19.711Z,34.02
2018-07-30T16:21:19.715Z,34.05
2018-07-30T16:23:12.711Z,34.09
2018-07-30T16:24:12.696Z,34.04
2018-07-30T16:26:05.695Z,34.00
2018-07-30T16:27:05.660Z,33.90
2018-07-30T16:28:58.606Z,33.92
2018-07-30T16:29:58.626Z,33.92
2018-07-30T16:31:51.601Z,33.87
2018-07-30T16:32:51.604Z,33.83
2018-07-30T16:34:44.546Z,33.71
2018-07-30T16:35:44.571Z,33.73
2018-07-30T16:37:37.530Z,33.71
2018-07-30T16:38:37.538Z,33.68
2018-07-30T16:40:30.506Z,33.65
2018-07-30T16:41:30.519Z,33.67
2018-07-30T16:43:23.449Z,33.60
2018-07-30T16:44:23.472Z,33.61
2018-07-30T16:46:16.439Z,33.51
2018-07-30T16:47:16.465Z,33.61
2018-07-30T16:49:09.382Z,33.49
2018-07-30T16:50:09.403Z,33.49
2018-07-30T16:52:02.369Z,33.45
2018-07-30T16:53:02.368Z,33.51
2018-07-30T16:54:55.336Z,33.42
2018-07-30T16:55:55.346Z,33.39
2018-07-30T16:57:48.316Z,33.34
2018-07-30T16:58:48.359Z,33.29
2018-07-30T17:00:41.278Z,33.27
2018-07-30T17:01:41.279Z,33.27
2018-07-30T17:03:34.222Z,33.15
2018-07-30T17:04:34.263Z,33.26
2018-07-30T17:06:27.213Z,33.26
2018-07-30T17:07:27.215Z,33.19
2018-07-30T17:09:20.172Z,33.03
2018-07-30T17:10:20.178Z,33.07
2018-07-30T17:12:13.141Z,32.98
2018-07-30T17:13:13.141Z,33.06
2018-07-30T17:15:06.089Z,32.91
2018-07-30T17:16:06.108Z,32.99
2018-07-30T17:17:59.071Z,32.91
2018-07-30T17:18:59.074Z,32.86
2018-07-30T17:20:52.037Z,32.85
2018-07-30T17:21:52.035Z,32.80
2018-07-30T17:23:44.990Z,32.76
2018-07-30T17:24:45.019Z,32.73
2018-07-30T17:26:37.972Z,32.66
2018-07-30T17:27:37.973Z,32.69
2018-07-30T17:29:30.914Z,32.66
2018-07-30T17:30:30.937Z,32.54
2018-07-30T17:32:23.895Z,32.58
2018-07-30T17:33:23.896Z,32.39
2018-07-30T17:35:16.843Z,32.40
2018-07-30T17:36:16.862Z,32.39
2018-07-30T17:38:09.876Z,32.47
2018-07-30T17:39:09.852Z,32.39
2018-07-30T17:41:02.811Z,32.29
2018-07-30T17:42:02.884Z,32.36
2018-07-30T17:43:55.753Z,32.30
2018-07-30T17:44:55.776Z,32.20
2018-07-30T17:46:48.737Z,32.20
2018-07-30T17:47:48.742Z,32.21
2018-07-30T17:49:41.681Z,32.17
2018-07-30T17:50:41.701Z,32.18
2018-07-30T17:52:34.661Z,32.03
2018-07-30T17:53:34.665Z,32.07
2018-07-30T17:55:27.605Z,32.05
2018-07-30T17:56:27.632Z,32.05
2018-07-30T17:58:20.601Z,32.06
2018-07-30T17:59:20.601Z,31.98
2018-07-30T18:01:13.562Z,31.96
2018-07-30T18:02:13.569Z,31.99
2018-07-30T18:04:06.520Z,31.91
2018-07-30T18:05:06.529Z,31.93
2018-07-30T18:06:59.489Z,31.76
2018-07-30T18:07:59.492Z,31.76
2018-07-30T18:09:52.430Z,31.75
2018-07-30T18:10:52.457Z,31.75
2018-07-30T18:12:45.412Z,31.64
2018-07-30T18:13:45.423Z,31.67
2018-07-30T18:15:38.362Z,31.57
2018-07-30T18:16:38.376Z,31.62
2018-07-30T18:18:31.344Z,31.53
2018-07-30T18:19:31.342Z,31.42
2018-07-30T18:21:24.303Z,31.35
2018-07-30T18:22:24.305Z,31.36
2018-07-30T18:24:17.290Z,31.35
2018-07-30T18:25:17.272Z,31.35
2018-07-30T18:27:10.228Z,31.28
2018-07-30T18:28:10.228Z,31.28
2018-07-30T18:30:03.180Z,31.30
2018-07-30T18:31:03.203Z,31.20
2018-07-30T18:32:56.164Z,31.15
2018-07-30T18:33:56.166Z,31.05
2018-07-30T18:35:49.108Z,31.05
2018-07-30T18:36:49.126Z,31.12
2018-07-30T18:38:42.087Z,30.91
2018-07-30T18:39:42.088Z,30.89
2018-07-30T18:41:35.054Z,30.87
2018-07-30T18:42:35.056Z,30.75
2018-07-30T18:44:27.998Z,30.81
2018-07-30T18:45:28.017Z,30.74
2018-07-30T18:47:20.976Z,30.67
2018-07-30T18:48:20.976Z,30.68
2018-07-30T18:50:13.918Z,30.62
2018-07-30T18:51:13.941Z,30.53
2018-07-30T18:53:06.896Z,30.47
2018-07-30T18:54:06.898Z,30.45
2018-07-30T18:55:59.850Z,30.47
2018-07-30T18:56:59.858Z,30.33
2018-07-30T18:58:52.817Z,30.24
2018-07-30T18:59:52.813Z,30.37
2018-07-30T19:01:45.782Z,30.21
2018-07-30T19:02:45.779Z,30.14